createdAt,value
2017-07-09T00:02:20.305Z,4.07
2017-07-09T00:04:47.202Z,5.13
2017-07-09T00:07:14.205Z,5.13
2017-07-09T00:09:41.490Z,6.60
2017-07-09T00:12:08.402Z,5.27
2017-07-09T00:14:35.375Z,5.30
2017-07-09T00:17:02.293Z,6.60
2017-07-09T00:19:29.178Z,5.20
2017-07-09T00:21:56.096Z,5.37
2017-07-09T00:24:23.383Z,5.20
2017-07-09T00:26:50.270Z,5.17
2017-07-09T00:29:17.238Z,4.73
2017-07-09T00:31:44.514Z,5.07
2017-07-09T00:34:11.435Z,5.07
2017-07-09T00:36:38.354Z,5.93
2017-07-09T00:39:05.327Z,5.60
2017-07-09T00:41:32.230Z,5.40
2017-07-09T00:43:59.594Z,6.60
2017-07-09T00:46:26.938Z,6.77
2017-07-09T00:48:53.988Z,6.43
2017-07-09T00:51:21.346Z,6.07
2017-07-09T00:53:48.627Z,6.20
2017-07-09T00:56:15.544Z,7.07
2017-07-09T00:58:42.898Z,6.17
2017-07-09T01:01:10.258Z,6.93
2017-07-09T01:03:37.627Z,6.27
2017-07-09T01:06:04.949Z,6.40
2017-07-09T01:08:31.914Z,7.00
2017-07-09T01:10:58.794Z,6.43
2017-07-09T01:13:25.797Z,5.97
2017-07-09T01:15:52.746Z,6.57
2017-07-09T01:18:19.635Z,6.83
2017-07-09T01:20:46.569Z,6.20
2017-07-09T01:23:13.481Z,6.47
2017-07-09T01:25:40.371Z,6.57
2017-07-09T01:28:07.374Z,6.87
2017-07-09T01:30:34.254Z,6.70
2017-07-09T01:33:01.131Z,6.70
2017-07-09T01:35:28.110Z,6.20
2017-07-09T01:37:55.062Z,6.40
2017-07-09T01:40:21.945Z,6.80
2017-07-09T01:42:48.963Z,6.40
2017-07-09T01:45:16.245Z,7.50
2017-07-09T01:47:43.132Z,7.30
2017-07-09T01:50:10.095Z,8.67
2017-07-09T01:52:36.978Z,7.97
2017-07-09T01:55:03.863Z,8.40
2017-07-09T01:57:30.786Z,8.07
2017-07-09T01:59:57.671Z,7.70
2017-07-09T02:02:24.644Z,7.30
2017-07-09T02:04:51.962Z,8.83
2017-07-09T02:07:18.930Z,9.17
2017-07-09T02:09:45.899Z,8.97
2017-07-09T02:12:12.937Z,10.20
2017-07-09T02:14:39.822Z,9.90
2017-07-09T02:17:06.719Z,8.90
2017-07-09T02:19:33.675Z,11.07
2017-07-09T02:22:01.030Z,10.00
2017-07-09T02:24:28.379Z,11.90
2017-07-09T02:26:55.734Z,10.33
2017-07-09T02:29:22.663Z,10.63
2017-07-09T02:31:49.631Z,10.00
2017-07-09T02:34:16.574Z,12.37
2017-07-09T02:36:43.534Z,11.93
2017-07-09T02:39:10.882Z,11.50
2017-07-09T02:41:38.234Z,13.07
2017-07-09T02:44:05.126Z,14.57
2017-07-09T02:46:32.014Z,14.50
2017-07-09T02:48:58.945Z,14.17
2017-07-09T02:51:25.917Z,14.23
2017-07-09T02:53:52.864Z,13.03
2017-07-09T02:56:19.789Z,13.70
2017-07-09T02:58:46.760Z,14.53
2017-07-09T03:01:14.051Z,15.33
2017-07-09T03:03:41.058Z,13.13
2017-07-09T03:06:08.006Z,14.70
2017-07-09T03:08:34.965Z,14.90
2017-07-09T03:11:02.294Z,16.13
2017-07-09T03:13:29.188Z,16.17
2017-07-09T03:15:56.082Z,16.87
2017-07-09T03:18:23.058Z,15.73
2017-07-09T03:20:50.401Z,17.30
2017-07-09T03:23:17.761Z,18.30
2017-07-09T03:25:45.092Z,16.17
2017-07-09T03:28:12.060Z,16.00
2017-07-09T03:30:39.418Z,14.53
2017-07-09T03:33:06.754Z,16.87
2017-07-09T03:35:33.726Z,16.40
2017-07-09T03:38:01.077Z,16.53
2017-07-09T03:40:28.488Z,17.40
2017-07-09T03:42:55.726Z,17.47
2017-07-09T03:45:22.632Z,16.90
2017-07-09T03:47:49.574Z,15.47
2017-07-09T03:50:16.538Z,16.73
2017-07-09T03:52:43.878Z,16.20
2017-07-09T03:55:10.831Z,15.07
2017-07-09T03:57:38.190Z,17.00
2017-07-09T04:00:05.541Z,15.23
2017-07-09T04:02:32.894Z,14.87
2017-07-09T04:04:59.850Z,15.23
2017-07-09T04:07:27.201Z,14.63
2017-07-09T04:09:54.590Z,15.50
2017-07-09T04:12:21.506Z,15.27
2017-07-09T04:14:48.860Z,16.07
2017-07-09T04:17:16.191Z,14.20
2017-07-09T04:19:43.162Z,13.70
2017-07-09T04:22:10.451Z,11.87
2017-07-09T04:24:37.470Z,12.57
2017-07-09T04:27:04.422Z,10.73
2017-07-09T04:29:31.775Z,10.67
2017-07-09T04:31:58.823Z,10.60
2017-07-09T04:34:25.772Z,11.23
2017-07-09T04:36:52.658Z,10.90
2017-07-09T04:39:20.007Z,10.40
2017-07-09T04:41:46.955Z,10.20
2017-07-09T04:44:13.903Z,11.90
2017-07-09T04:46:41.262Z,11.73
2017-07-09T04:49:08.551Z,12.00
2017-07-09T04:51:35.443Z,10.90
2017-07-09T04:54:02.407Z,11.53
2017-07-09T04:56:29.762Z,12.57
2017-07-09T04:58:57.052Z,11.20
2017-07-09T05:01:23.987Z,11.77
2017-07-09T05:03:50.880Z,11.17
2017-07-09T05:06:17.861Z,11.60
2017-07-09T05:08:45.215Z,10.77
2017-07-09T05:11:12.568Z,11.80
2017-07-09T05:13:39.925Z,11.20
2017-07-09T05:16:07.278Z,11.83
2017-07-09T05:18:34.566Z,11.17
2017-07-09T05:21:02.329Z,12.80
2017-07-09T05:23:29.266Z,11.90
2017-07-09T05:25:56.192Z,10.87
2017-07-09T05:28:23.089Z,10.90
2017-07-09T05:30:50.424Z,10.83
2017-07-09T05:33:17.326Z,10.80
2017-07-09T05:35:44.239Z,11.33
2017-07-09T05:38:11.695Z,11.10
2017-07-09T05:40:38.586Z,13.27
2017-07-09T05:43:05.470Z,13.30
2017-07-09T05:45:32.481Z,12.20
2017-07-09T05:47:59.429Z,13.23
2017-07-09T05:50:26.737Z,12.70
2017-07-09T05:52:53.735Z,12.60
2017-07-09T05:55:21.085Z,14.13
2017-07-09T05:57:47.978Z,12.50
2017-07-09T06:00:14.903Z,12.77
2017-07-09T06:02:41.822Z,13.30
2017-07-09T06:05:09.178Z,13.47
2017-07-09T06:07:36.169Z,13.80
2017-07-09T06:10:03.071Z,13.40
2017-07-09T06:12:30.018Z,14.50
2017-07-09T06:14:57.378Z,16.17
2017-07-09T06:17:24.666Z,17.00
2017-07-09T06:19:51.550Z,17.13
2017-07-09T06:22:18.494Z,17.13
2017-07-09T06:24:45.466Z,17.30
2017-07-09T06:27:12.358Z,16.23
2017-07-09T06:29:39.295Z,14.63
2017-07-09T06:32:06.242Z,15.70
2017-07-09T06:34:33.129Z,15.80
2017-07-09T06:37:00.100Z,16.73
2017-07-09T06:39:27.454Z,19.07
2017-07-09T06:41:54.827Z,17.80
2017-07-09T06:44:22.170Z,16.17
2017-07-09T06:46:49.510Z,17.10
2017-07-09T06:49:16.402Z,19.10
2017-07-09T06:51:43.402Z,14.10
2017-07-09T06:54:10.351Z,18.10
2017-07-09T06:56:37.703Z,18.73
2017-07-09T06:59:04.651Z,15.07
2017-07-09T07:01:31.602Z,15.40
2017-07-09T07:03:58.958Z,15.23
2017-07-09T07:06:26.042Z,14.53
2017-07-09T07:08:52.994Z,14.10
2017-07-09T07:11:19.942Z,14.07
2017-07-09T07:13:47.263Z,14.77
2017-07-09T07:16:14.238Z,15.03
2017-07-09T07:18:41.187Z,14.07
2017-07-09T07:21:08.235Z,12.27
2017-07-09T07:23:35.126Z,14.70
2017-07-09T07:26:02.025Z,15.17
2017-07-09T07:28:29.382Z,13.50
2017-07-09T07:30:56.738Z,13.67
2017-07-09T07:33:24.100Z,16.63
2017-07-09T07:35:51.550Z,14.20
2017-07-09T07:38:18.498Z,12.73
2017-07-09T07:40:45.863Z,11.43
2017-07-09T07:43:13.199Z,12.87
2017-07-09T07:45:40.107Z,13.50
2017-07-09T07:48:06.998Z,13.30
2017-07-09T07:50:33.942Z,12.30
2017-07-09T07:53:00.899Z,14.17
2017-07-09T07:55:28.250Z,11.23
2017-07-09T07:57:55.195Z,11.50
2017-07-09T08:00:22.183Z,12.13
2017-07-09T08:02:49.068Z,13.83
2017-07-09T08:05:16.042Z,12.83
2017-07-09T08:07:43.390Z,11.27
2017-07-09T08:10:10.342Z,11.40
2017-07-09T08:12:37.694Z,11.67
2017-07-09T08:15:04.997Z,12.23
2017-07-09T08:17:31.901Z,11.80
2017-07-09T08:19:59.251Z,12.17
2017-07-09T08:22:26.534Z,13.20
2017-07-09T08:24:53.451Z,11.30
2017-07-09T08:27:20.809Z,12.90
2017-07-09T08:29:48.101Z,10.63
2017-07-09T08:32:15.113Z,11.43
2017-07-09T08:34:42.107Z,10.30
2017-07-09T08:37:08.998Z,11.23
2017-07-09T08:39:36.327Z,9.63
2017-07-09T08:42:03.290Z,9.83
2017-07-09T08:44:30.239Z,9.03
2017-07-09T08:46:57.526Z,10.90
2017-07-09T08:49:24.462Z,10.63
2017-07-09T08:51:51.741Z,9.77
2017-07-09T08:54:18.653Z,9.30
2017-07-09T08:56:45.998Z,8.93
2017-07-09T08:59:13.396Z,9.47
2017-07-09T09:01:40.275Z,8.10
2017-07-09T09:04:07.209Z,9.57
2017-07-09T09:06:34.101Z,7.93
2017-07-09T09:09:01.010Z,9.03
2017-07-09T09:11:27.981Z,9.37
2017-07-09T09:13:54.877Z,9.00
2017-07-09T09:16:21.769Z,9.80
2017-07-09T09:18:48.719Z,9.57
2017-07-09T09:21:16.085Z,10.40
2017-07-09T09:23:42.973Z,9.20
2017-07-09T09:26:09.969Z,8.67
2017-07-09T09:28:36.918Z,8.70
2017-07-09T09:31:04.273Z,8.93
2017-07-09T09:33:31.317Z,9.20
2017-07-09T09:35:58.335Z,9.33
2017-07-09T09:38:25.218Z,9.63
2017-07-09T09:40:52.669Z,8.73
2017-07-09T09:43:19.619Z,8.63
2017-07-09T09:45:46.576Z,9.00
2017-07-09T09:48:13.930Z,8.37
2017-07-09T09:50:41.276Z,7.70
2017-07-09T09:53:08.241Z,8.23
2017-07-09T09:55:35.566Z,7.53
2017-07-09T09:58:02.462Z,8.30
2017-07-09T10:00:29.357Z,8.80
2017-07-09T10:02:56.314Z,7.73
2017-07-09T10:05:23.409Z,8.20
2017-07-09T10:07:50.308Z,8.20
2017-07-09T10:10:17.222Z,8.83
2017-07-09T10:12:44.119Z,7.63
2017-07-09T10:15:10.998Z,8.20
2017-07-09T10:17:37.926Z,7.70
2017-07-09T10:20:04.811Z,7.50
2017-07-09T10:22:31.693Z,6.23
2017-07-09T10:24:59.097Z,7.50
2017-07-09T10:27:26.026Z,6.73
2017-07-09T10:29:52.910Z,6.67
2017-07-09T10:32:19.854Z,7.67
2017-07-09T10:34:46.821Z,7.07
2017-07-09T10:37:14.172Z,6.70
2017-07-09T10:39:41.567Z,6.17
2017-07-09T10:42:08.464Z,6.13
2017-07-09T10:44:35.346Z,6.77
2017-07-09T10:47:02.278Z,6.50
2017-07-09T10:49:29.632Z,6.57
2017-07-09T10:51:56.983Z,7.17
2017-07-09T10:54:24.305Z,7.03
2017-07-09T10:56:51.281Z,7.30
2017-07-09T10:59:18.221Z,7.90
2017-07-09T11:01:45.141Z,7.33
2017-07-09T11:04:12.034Z,7.43
2017-07-09T11:06:39.369Z,7.80
2017-07-09T11:09:06.363Z,6.77
2017-07-09T11:11:33.268Z,6.47
2017-07-09T11:14:00.213Z,7.70
2017-07-09T11:16:27.160Z,6.90
2017-07-09T11:18:54.050Z,6.73
2017-07-09T11:21:20.934Z,7.10
2017-07-09T11:23:47.868Z,7.23
2017-07-09T11:26:14.846Z,6.40
2017-07-09T11:28:42.202Z,6.97
2017-07-09T11:31:09.557Z,7.30
2017-07-09T11:33:36.839Z,7.30
2017-07-09T11:36:03.754Z,6.97
2017-07-09T11:38:30.710Z,6.20
2017-07-09T11:40:58.065Z,7.40
2017-07-09T11:43:25.418Z,7.17
2017-07-09T11:45:52.771Z,7.57
2017-07-09T11:48:20.126Z,7.63
2017-07-09T11:50:47.074Z,6.80
2017-07-09T11:53:14.438Z,7.47
2017-07-09T11:55:41.726Z,7.53
2017-07-09T11:58:08.612Z,6.63
2017-07-09T12:00:35.583Z,7.13
2017-07-09T12:03:02.927Z,6.60
2017-07-09T12:05:29.883Z,6.60
2017-07-09T12:07:57.215Z,6.50
2017-07-09T12:10:24.184Z,6.53
2017-07-09T12:12:51.546Z,7.20
2017-07-09T12:15:18.891Z,6.50
2017-07-09T12:17:45.846Z,7.13
2017-07-09T12:20:13.127Z,6.37
2017-07-09T12:22:40.144Z,6.07
2017-07-09T12:25:07.426Z,5.83
2017-07-09T12:27:34.338Z,6.60
2017-07-09T12:30:01.291Z,6.10
2017-07-09T12:32:28.687Z,7.07
2017-07-09T12:34:55.594Z,6.03
2017-07-09T12:37:22.918Z,7.10
2017-07-09T12:39:49.890Z,6.37
2017-07-09T12:42:16.845Z,6.90
2017-07-09T12:44:44.191Z,6.43
2017-07-09T12:47:11.107Z,7.07
2017-07-09T12:49:38.015Z,5.93
2017-07-09T12:52:05.038Z,5.60
2017-07-09T12:54:32.318Z,5.80
2017-07-09T12:56:59.208Z,5.33
2017-07-09T12:59:26.177Z,5.40
2017-07-09T13:01:53.131Z,3.43
2017-07-09T13:04:20.074Z,3.40
2017-07-09T13:06:47.008Z,4.47
2017-07-09T13:09:13.979Z,3.77
2017-07-09T13:11:41.330Z,4.87
2017-07-09T13:14:08.687Z,4.30
2017-07-09T13:16:36.041Z,4.77
2017-07-09T13:19:03.398Z,3.80
2017-07-09T13:21:30.723Z,4.97
2017-07-09T13:23:57.725Z,4.03
2017-07-09T13:26:24.638Z,3.83
2017-07-09T13:28:51.891Z,4.90
2017-07-09T13:31:18.857Z,5.07
2017-07-09T13:33:46.143Z,4.13
2017-07-09T13:36:13.150Z,4.80
2017-07-09T13:38:40.102Z,5.10
2017-07-09T13:41:07.378Z,5.50
2017-07-09T13:43:34.302Z,4.60
2017-07-09T13:46:01.649Z,4.90
2017-07-09T13:48:28.549Z,5.27
2017-07-09T13:50:55.550Z,4.97
2017-07-09T13:53:22.842Z,5.00
2017-07-09T13:55:49.744Z,5.20
2017-07-09T13:58:17.087Z,5.03
2017-07-09T14:00:44.054Z,4.93
2017-07-09T14:03:11.338Z,4.77
2017-07-09T14:05:38.267Z,5.20
2017-07-09T14:08:05.602Z,4.60
2017-07-09T14:10:32.482Z,4.00
2017-07-09T14:12:59.414Z,4.73
2017-07-09T14:15:26.346Z,4.73
2017-07-09T14:17:53.287Z,5.47
2017-07-09T14:20:20.234Z,6.13
2017-07-09T14:22:47.173Z,5.00
2017-07-09T14:25:14.066Z,4.53
2017-07-09T14:27:41.066Z,5.50
2017-07-09T14:30:08.013Z,4.97
2017-07-09T14:32:34.962Z,4.93
2017-07-09T14:35:01.909Z,5.10
2017-07-09T14:37:28.804Z,5.60
2017-07-09T14:39:55.818Z,4.47
2017-07-09T14:42:22.762Z,5.20
2017-07-09T14:44:49.638Z,4.77
2017-07-09T14:47:16.611Z,5.00
2017-07-09T14:49:43.970Z,5.60
2017-07-09T14:52:11.330Z,5.20
2017-07-09T14:54:38.677Z,4.77
2017-07-09T14:57:06.033Z,4.33
2017-07-09T14:59:32.922Z,5.53
2017-07-09T15:01:59.827Z,5.37
2017-07-09T15:04:26.765Z,4.70
2017-07-09T15:06:53.726Z,5.90
2017-07-09T15:09:21.082Z,4.87
2017-07-09T15:11:48.410Z,4.87
2017-07-09T15:14:15.377Z,4.50
2017-07-09T15:16:42.654Z,5.43
2017-07-09T15:19:09.579Z,4.67
2017-07-09T15:21:36.929Z,5.70
2017-07-09T15:24:03.883Z,5.40
2017-07-09T15:26:30.826Z,4.57
2017-07-09T15:28:58.178Z,5.27
2017-07-09T15:31:25.090Z,5.33
2017-07-09T15:33:52.024Z,4.80
2017-07-09T15:36:18.998Z,6.77
2017-07-09T15:38:46.341Z,5.97
2017-07-09T15:41:13.295Z,6.33
2017-07-09T15:43:40.179Z,8.40
2017-07-09T15:46:07.066Z,8.10
2017-07-09T15:48:34.109Z,7.37
2017-07-09T15:51:01.391Z,7.83
2017-07-09T15:53:28.408Z,7.30
2017-07-09T15:55:55.759Z,6.30
2017-07-09T15:58:23.042Z,7.80
2017-07-09T16:00:49.954Z,8.03
2017-07-09T16:03:16.906Z,7.50
2017-07-09T16:05:44.303Z,8.10
2017-07-09T16:08:11.209Z,8.20
2017-07-09T16:10:39.218Z,8.87
2017-07-09T16:13:06.103Z,8.10
2017-07-09T16:15:33.075Z,8.83
2017-07-09T16:18:00.004Z,8.70
2017-07-09T16:20:26.897Z,8.63
2017-07-09T16:22:53.792Z,9.77
2017-07-09T16:25:20.723Z,9.33
2017-07-09T16:27:48.071Z,8.97
2017-07-09T16:30:15.010Z,8.60
2017-07-09T16:32:42.358Z,8.80
2017-07-09T16:35:09.314Z,8.67
2017-07-09T16:37:36.594Z,8.60
2017-07-09T16:40:03.612Z,8.70
2017-07-09T16:42:30.563Z,8.23
2017-07-09T16:44:57.922Z,9.10
2017-07-09T16:47:25.286Z,8.43
2017-07-09T16:49:52.631Z,8.73
2017-07-09T16:52:19.933Z,9.43
2017-07-09T16:54:46.874Z,8.83
2017-07-09T16:57:13.764Z,8.80
2017-07-09T16:59:40.718Z,8.20
2017-07-09T17:02:08.274Z,8.27
2017-07-09T17:04:35.272Z,8.40
2017-07-09T17:07:02.189Z,7.20
2017-07-09T17:09:29.526Z,7.03
2017-07-09T17:11:56.410Z,8.00
2017-07-09T17:14:23.298Z,7.23
2017-07-09T17:16:50.271Z,7.43
2017-07-09T17:19:17.550Z,7.90
2017-07-09T17:21:44.818Z,7.00
2017-07-09T17:24:11.817Z,6.93
2017-07-09T17:26:38.771Z,7.93
2017-07-09T17:29:05.657Z,8.07
2017-07-09T17:31:32.611Z,7.10
2017-07-09T17:33:59.507Z,8.37
2017-07-09T17:36:26.858Z,7.50
2017-07-09T17:38:53.818Z,7.33
2017-07-09T17:41:21.107Z,7.67
2017-07-09T17:43:48.111Z,8.23
2017-07-09T17:46:15.068Z,7.90
2017-07-09T17:48:42.414Z,8.70
2017-07-09T17:51:09.303Z,7.63
2017-07-09T17:53:36.305Z,7.93
2017-07-09T17:56:03.262Z,7.60
2017-07-09T17:58:30.552Z,8.13
2017-07-09T18:00:57.474Z,7.70
2017-07-09T18:03:24.409Z,7.40
2017-07-09T18:05:51.723Z,8.93
2017-07-09T18:08:18.702Z,8.53
2017-07-09T18:10:45.649Z,8.67
2017-07-09T18:13:12.929Z,8.80
2017-07-09T18:15:39.950Z,7.50
2017-07-09T18:18:06.866Z,8.23
2017-07-09T18:20:33.813Z,7.33
2017-07-09T18:23:00.790Z,8.07
2017-07-09T18:25:27.736Z,7.67
2017-07-09T18:27:54.682Z,8.07
2017-07-09T18:30:21.633Z,7.80
2017-07-09T18:32:48.522Z,7.97
2017-07-09T18:35:15.410Z,6.20
2017-07-09T18:37:42.366Z,7.80
2017-07-09T18:40:09.263Z,9.10
2017-07-09T18:42:36.150Z,7.57
2017-07-09T18:45:03.070Z,8.30
2017-07-09T18:47:30.047Z,7.97
2017-07-09T18:49:56.999Z,8.20
2017-07-09T18:52:23.938Z,8.20
2017-07-09T18:54:50.886Z,8.27
2017-07-09T18:57:17.840Z,8.83
2017-07-09T18:59:45.164Z,7.97
2017-07-09T19:02:12.047Z,7.80
2017-07-09T19:04:39.390Z,8.53
2017-07-09T19:07:06.318Z,8.77
2017-07-09T19:09:33.264Z,9.30
2017-07-09T19:12:00.153Z,7.60
2017-07-09T19:14:27.134Z,6.93
2017-07-09T19:16:54.535Z,7.70
2017-07-09T19:19:21.422Z,8.70
2017-07-09T19:21:48.348Z,8.77
2017-07-09T19:24:15.242Z,9.33
2017-07-09T19:26:42.527Z,8.73
2017-07-09T19:29:09.537Z,7.53
2017-07-09T19:31:36.887Z,7.70
2017-07-09T19:34:03.782Z,8.40
2017-07-09T19:36:30.786Z,9.20
2017-07-09T19:38:58.067Z,8.80
2017-07-09T19:41:24.986Z,8.90
2017-07-09T19:43:52.330Z,7.77
2017-07-09T19:46:19.322Z,9.03
2017-07-09T19:48:46.222Z,9.50
2017-07-09T19:51:13.154Z,9.47
2017-07-09T19:53:40.046Z,8.70
2017-07-09T19:56:06.957Z,7.93
2017-07-09T19:58:33.915Z,8.83
2017-07-09T20:01:01.202Z,9.10
2017-07-09T20:03:28.106Z,8.20
2017-07-09T20:05:55.033Z,8.03
2017-07-09T20:08:22.114Z,8.57
2017-07-09T20:10:49.458Z,9.07
2017-07-09T20:13:16.413Z,9.50
2017-07-09T20:15:43.691Z,9.40
2017-07-09T20:18:10.582Z,49.50
2017-07-09T20:20:37.519Z,9.30
2017-07-09T20:23:04.497Z,9.57
2017-07-09T20:25:31.387Z,9.40
2017-07-09T20:27:58.589Z,10.20
2017-07-09T20:30:25.498Z,9.60
2017-07-09T20:32:52.490Z,9.70
2017-07-09T20:35:19.494Z,9.47
2017-07-09T20:37:46.385Z,10.50
2017-07-09T20:40:13.298Z,9.83
2017-07-09T20:42:40.655Z,9.33
2017-07-09T20:45:08.002Z,10.37
2017-07-09T20:47:34.890Z,10.20
2017-07-09T20:50:01.826Z,11.87
2017-07-09T20:52:28.705Z,9.77
2017-07-09T20:54:55.688Z,7.90
2017-07-09T20:57:22.730Z,8.50
2017-07-09T20:59:49.666Z,8.50
2017-07-09T21:02:16.550Z,8.70
2017-07-09T21:04:43.579Z,9.07
2017-07-09T21:07:10.930Z,8.93
2017-07-09T21:09:38.282Z,9.83
2017-07-09T21:12:05.235Z,10.10
2017-07-09T21:14:32.590Z,11.50
2017-07-09T21:16:59.874Z,12.17
2017-07-09T21:19:26.791Z,10.97
2017-07-09T21:21:54.146Z,12.47
2017-07-09T21:24:21.434Z,13.33
2017-07-09T21:26:48.433Z,8.27
2017-07-09T21:29:15.322Z,10.10
2017-07-09T21:31:42.335Z,12.47
2017-07-09T21:34:09.254Z,10.60
2017-07-09T21:36:36.234Z,14.23
2017-07-09T21:41:49.039Z,10.47
2017-07-09T21:44:15.938Z,11.17
2017-07-09T21:46:42.864Z,11.33
2017-07-09T21:49:10.257Z,10.20
2017-07-09T21:51:37.146Z,11.07
2017-07-09T21:54:04.052Z,11.73
2017-07-09T21:56:31.072Z,11.07
2017-07-09T21:58:58.007Z,10.70
2017-07-09T22:01:25.357Z,11.63
2017-07-09T22:03:52.293Z,9.57
2017-07-09T22:06:19.193Z,12.13
2017-07-09T22:08:46.102Z,11.80
2017-07-09T22:11:13.415Z,11.37
2017-07-09T22:13:40.303Z,11.10
2017-07-09T22:16:07.636Z,12.13
2017-07-09T22:18:34.599Z,12.03
2017-07-09T22:21:01.894Z,11.20
2017-07-09T22:23:28.817Z,12.17
2017-07-09T22:25:55.716Z,10.40
2017-07-09T22:28:22.646Z,12.60
2017-07-09T22:30:49.637Z,10.80
2017-07-09T22:33:16.531Z,10.10
2017-07-09T22:35:43.447Z,10.73
2017-07-09T22:38:10.339Z,10.20
2017-07-09T22:40:37.319Z,11.00
2017-07-09T22:43:04.263Z,9.60
2017-07-09T22:45:31.154Z,8.63
2017-07-09T22:47:58.158Z,8.97
2017-07-09T22:50:25.079Z,11.37
2017-07-09T22:52:52.368Z,11.87
2017-07-09T22:55:19.299Z,13.17
2017-07-09T22:57:46.287Z,13.27
2017-07-09T23:00:13.238Z,10.70
2017-07-09T23:02:40.590Z,11.37
2017-07-09T23:05:07.955Z,11.60
2017-07-09T23:07:35.302Z,9.67
2017-07-09T23:10:02.595Z,11.70
2017-07-09T23:12:29.506Z,13.73
2017-07-09T23:14:56.858Z,13.73
2017-07-09T23:17:24.157Z,12.60
2017-07-09T23:19:51.043Z,11.63
2017-07-09T23:22:18.044Z,13.43
2017-07-09T23:24:44.937Z,12.13
2017-07-09T23:27:11.869Z,11.70
2017-07-09T23:29:38.783Z,12.17
2017-07-09T23:32:05.691Z,10.93
2017-07-09T23:34:33.046Z,9.87
2017-07-09T23:37:00.400Z,11.10
2017-07-09T23:39:27.686Z,10.57
2017-07-09T23:41:54.750Z,11.37
2017-07-09T23:44:21.634Z,10.53
2017-07-09T23:46:48.598Z,12.30
2017-07-09T23:49:15.918Z,10.53
2017-07-09T23:51:42.885Z,11.13
2017-07-09T23:54:10.245Z,10.87
2017-07-09T23:56:37.184Z,11.73
2017-07-09T23:59:04.538Z,11.37
